Time;durP1;ratioP1;P1;durP2;ratioP2;P2;SDS_P1;SDS_P2;PMS_P1;PMS_P2;Temp;Humidity;BMP_temperature;BMP_pressure;BME280_temperature;BME280_humidity;BME280_pressure;Samples;Min_cycle;Max_cycle;Signal;HPM_P1;HPM_P2
2022/06/22 00:00:30;;;;;;;;;;;;;;;11.90;82.26;97869.64;1774016;79;20591;-67
2022/06/22 00:02:57;;;;;;;;;;;;;;;11.86;82.71;97872.11;1800310;79;20143;-66
2022/06/22 00:05:43;;;;;;;;;;;;;;;11.80;83.42;97868.86;1800347;79;21223;-66
2022/06/22 00:08:15;;;;;;;;;;;;;;;11.74;83.98;97867.53;1772194;79;20079;-66
2022/06/22 00:10:52;;;;;;;;;;;;;;;11.67;84.35;97868.77;1800503;79;20408;-66
2022/06/22 00:13:22;;;;;;;;;;;;;;;11.63;85.05;97860.23;1800517;79;20432;-66
2022/06/22 00:15:51;;;;;;;;;;;;;;;11.58;85.81;97858.58;1800409;79;20092;-66
2022/06/22 00:18:23;;;;;;;;;;;;;;;11.50;86.43;97857.67;1800364;79;21141;-66
2022/06/22 00:20:51;;;;;;;;;;;;;;;11.48;86.91;97849.58;1800492;79;20084;-66
2022/06/22 00:23:28;;;;;;;;;;;;;;;11.48;87.49;97843.50;1800308;79;20080;-66
2022/06/22 00:26:15;;;;;;;;;;;;;;;11.48;87.85;97835.84;1800271;79;20115;-66
2022/06/22 00:29:05;;;;;;;;;;;;;;;11.50;88.03;97830.77;1800279;79;20079;-67
2022/06/22 00:31:36;;;;;;;;;;;;;;;11.49;88.17;97831.35;1800251;79;21263;-68
2022/06/22 00:34:11;;;;;;;;;;;;;;;11.47;88.39;97833.67;1800142;79;20420;-66
2022/06/22 00:36:57;;;;;;;;;;;;;;;11.48;88.83;97833.88;1800524;79;20080;-66
2022/06/22 00:39:33;;;;;;;;;;;;;;;11.48;89.29;97844.08;1800299;78;20071;-66
2022/06/22 00:42:16;;;;;;;;;;;;;;;11.42;89.60;97838.08;1800086;79;20115;-66
2022/06/22 00:44:49;;;;;;;;;;;;;;;11.37;89.84;97834.83;1800257;79;21148;-66
2022/06/22 00:47:22;;;;;;;;;;;;;;;11.31;90.17;97834.90;1800278;79;20127;-67
2022/06/22 00:49:49;;;;;;;;;;;;;;;11.20;90.86;97821.75;1800469;79;20088;-66
2022/06/22 00:52:19;;;;;;;;;;;;;;;11.14;91.55;97825.14;1800433;79;20107;-66
2022/06/22 00:54:46;;;;;;;;;;;;;;;11.09;92.25;97819.36;1799678;79;20150;-66
2022/06/22 00:57:15;;;;;;;;;;;;;;;11.06;92.63;97818.70;1800322;79;22006;-66
2022/06/22 00:59:45;;;;;;;;;;;;;;;11.03;93.24;97811.77;1800136;79;20115;-66
2022/06/22 01:02:28;;;;;;;;;;;;;;;11.00;93.89;97814.65;1800365;79;20423;-66
2022/06/22 01:05:03;;;;;;;;;;;;;;;11.00;94.27;97805.62;1800306;79;20443;-67
2022/06/22 01:07:46;;;;;;;;;;;;;;;11.00;94.50;97796.80;1799787;79;20143;-66
2022/06/22 01:10:20;;;;;;;;;;;;;;;10.99;94.78;97797.16;1800244;79;21139;-66
2022/06/22 01:12:50;;;;;;;;;;;;;;;10.98;95.02;97793.63;1783696;79;20080;-66
2022/06/22 01:15:39;;;;;;;;;;;;;;;10.97;95.13;97789.89;1800257;79;20104;-66
2022/06/22 01:18:22;;;;;;;;;;;;;;;10.93;95.21;97785.70;1800298;79;20096;-66
2022/06/22 01:20:56;;;;;;;;;;;;;;;10.88;95.31;97788.16;1800288;79;20088;-66
2022/06/22 01:23:41;;;;;;;;;;;;;;;10.82;95.66;97775.87;1800549;79;21757;-66
2022/06/22 01:26:30;;;;;;;;;;;;;;;10.77;96.13;97773.41;1800332;79;20120;-66
2022/06/22 01:29:01;;;;;;;;;;;;;;;10.71;96.54;97770.72;1800209;79;20127;-67
2022/06/22 01:31:30;;;;;;;;;;;;;;;10.69;97.02;97767.55;1799916;79;37831;-67
2022/06/22 01:33:56;;;;;;;;;;;;;;;10.69;97.61;97766.75;1800285;79;20470;-66
2022/06/22 01:36:29;;;;;;;;;;;;;;;10.68;98.07;97763.21;1800272;79;21148;-66
2022/06/22 01:38:55;;;;;;;;;;;;;;;10.70;98.54;97760.11;1800169;79;20441;-66
2022/06/22 01:41:37;;;;;;;;;;;;;;;10.73;98.99;97755.27;1823667;78;20090;-66
2022/06/22 01:44:07;;;;;;;;;;;;;;;10.78;99.33;97756.36;1820720;78;20072;-67
2022/06/22 01:46:45;;;;;;;;;;;;;;;10.83;99.59;97754.70;1811912;78;20445;-66
2022/06/22 01:49:26;;;;;;;;;;;;;;;10.87;99.70;97751.45;1823841;78;20971;-66
2022/06/22 01:51:55;;;;;;;;;;;;;;;10.88;99.83;97748.92;1825366;78;20082;-67
2022/06/22 01:54:27;;;;;;;;;;;;;;;10.93;100.00;97746.47;1825353;78;20098;-66
2022/06/22 01:57:06;;;;;;;;;;;;;;;10.94;100.00;97739.25;1825611;78;20494;-66
2022/06/22 01:59:53;;;;;;;;;;;;;;;10.92;100.00;97737.44;1825337;78;20098;-66
2022/06/22 02:02:31;;;;;;;;;;;;;;;10.91;100.00;97746.83;1826000;78;21130;-66
2022/06/22 02:05:14;;;;;;;;;;;;;;;10.93;100.00;97736.28;1825263;78;20156;-66
2022/06/22 02:07:46;;;;;;;;;;;;;;;10.96;100.00;97746.55;1825402;78;20086;-66
2022/06/22 02:10:23;;;;;;;;;;;;;;;11.01;100.00;97742.11;1825236;78;20440;-66
2022/06/22 02:12:56;;;;;;;;;;;;;;;11.05;100.00;97742.97;1825394;78;20082;-66
2022/06/22 02:15:33;;;;;;;;;;;;;;;11.08;100.00;97739.50;1825518;78;21217;-66
2022/06/22 02:18:00;;;;;;;;;;;;;;;11.08;100.00;97737.34;1825344;78;20122;-66
2022/06/22 02:20:31;;;;;;;;;;;;;;;11.07;100.00;97722.81;1825263;78;20082;-66
2022/06/22 02:23:01;;;;;;;;;;;;;;;11.08;100.00;97729.09;1824009;78;20126;-66
2022/06/22 02:25:27;;;;;;;;;;;;;;;11.10;100.00;97720.71;1825352;78;20391;-66
2022/06/22 02:27:55;;;;;;;;;;;;;;;11.13;100.00;97722.73;1825270;78;21139;-66
2022/06/22 02:30:22;;;;;;;;;;;;;;;11.16;100.00;97721.21;1825283;78;20413;-66
2022/06/22 02:32:50;;;;;;;;;;;;;;;11.19;100.00;97719.91;1825219;78;20078;-66
2022/06/22 02:35:17;;;;;;;;;;;;;;;11.21;100.00;97715.42;1825204;78;20117;-66
2022/06/22 02:37:46;;;;;;;;;;;;;;;11.25;100.00;97717.08;1825190;78;20113;-66
2022/06/22 02:40:16;;;;;;;;;;;;;;;11.30;100.00;97709.13;1825820;78;20606;-66
2022/06/22 02:45:28;;;;;;;;;;;;;;;11.48;100.00;97712.19;1826803;78;20145;-66
2022/06/22 02:48:00;;;;;;;;;;;;;;;11.60;100.00;97710.61;1826785;78;20070;-66
2022/06/22 02:50:45;;;;;;;;;;;;;;;11.70;100.00;97714.70;1826696;78;20136;-66
2022/06/22 02:53:18;;;;;;;;;;;;;;;11.78;100.00;97717.23;1826826;78;21155;-66
2022/06/22 02:55:45;;;;;;;;;;;;;;;11.84;100.00;97714.97;1826664;78;20401;-66
2022/06/22 02:58:28;;;;;;;;;;;;;;;11.89;100.00;97713.28;1826683;78;20078;-66
2022/06/22 03:00:55;;;;;;;;;;;;;;;11.95;100.00;97713.19;1826690;78;20091;-66
2022/06/22 03:03:21;;;;;;;;;;;;;;;12.05;100.00;97706.27;1827008;78;20421;-66
2022/06/22 03:05:49;;;;;;;;;;;;;;;12.11;100.00;97710.28;1826762;78;21876;-66
2022/06/22 03:08:18;;;;;;;;;;;;;;;12.15;100.00;97708.35;1826757;78;20456;-66
2022/06/22 03:10:54;;;;;;;;;;;;;;;12.18;100.00;97702.11;1826826;78;20078;-66
2022/06/22 03:13:27;;;;;;;;;;;;;;;12.24;100.00;97708.30;1826794;78;20141;-66
2022/06/22 03:15:53;;;;;;;;;;;;;;;12.25;100.00;97706.34;1786993;78;20094;-66
2022/06/22 03:18:24;;;;;;;;;;;;;;;12.31;100.00;97708.20;1826807;78;21135;-66
2022/06/22 03:20:52;;;;;;;;;;;;;;;12.30;100.00;97708.77;1826647;78;20086;-66
2022/06/22 03:23:38;;;;;;;;;;;;;;;12.28;100.00;97713.86;1796492;78;20161;-66
2022/06/22 03:26:09;;;;;;;;;;;;;;;12.23;100.00;97719.09;1827074;78;20141;-66
2022/06/22 03:28:38;;;;;;;;;;;;;;;12.19;100.00;97719.63;1826542;78;20089;-66
2022/06/22 03:31:07;;;;;;;;;;;;;;;12.13;100.00;97718.34;1826818;78;21150;-66
2022/06/22 03:33:48;;;;;;;;;;;;;;;12.09;100.00;97720.86;1826660;78;20449;-66
2022/06/22 03:36:17;;;;;;;;;;;;;;;12.08;100.00;97726.95;1826654;78;20090;-66
2022/06/22 03:38:51;;;;;;;;;;;;;;;12.04;100.00;97731.59;1826713;78;20113;-66
2022/06/22 03:41:20;;;;;;;;;;;;;;;12.04;100.00;97726.09;1826214;78;20125;-66
2022/06/22 03:43:50;;;;;;;;;;;;;;;12.03;100.00;97731.38;1826792;78;21160;-66
2022/06/22 03:46:20;;;;;;;;;;;;;;;12.02;100.00;97731.75;1818174;78;20157;-66
2022/06/22 03:48:59;;;;;;;;;;;;;;;12.00;100.00;97728.00;1826668;78;20121;-66
2022/06/22 03:51:32;;;;;;;;;;;;;;;12.05;100.00;97734.56;1823278;78;20145;-66
2022/06/22 03:54:05;;;;;;;;;;;;;;;12.11;100.00;97730.91;1826816;78;20089;-66
2022/06/22 03:56:35;;;;;;;;;;;;;;;12.09;100.00;97737.37;1826716;78;21779;-66
2022/06/22 03:59:02;;;;;;;;;;;;;;;12.03;100.00;97731.97;1826897;78;20078;-66
2022/06/22 04:01:28;;;;;;;;;;;;;;;12.04;100.00;97739.84;1826799;78;20097;-66
2022/06/22 04:03:55;;;;;;;;;;;;;;;12.07;100.00;97741.06;1826761;78;20094;-65
2022/06/22 04:06:25;;;;;;;;;;;;;;;12.10;100.00;97741.12;1826782;78;20105;-66
2022/06/22 04:08:52;;;;;;;;;;;;;;;12.19;100.00;97739.45;1827028;78;21255;-66
2022/06/22 04:11:34;;;;;;;;;;;;;;;12.30;100.00;97746.50;1826626;78;20078;-66
2022/06/22 04:14:05;;;;;;;;;;;;;;;12.42;100.00;97747.66;1826826;78;20117;-66
2022/06/22 04:16:34;;;;;;;;;;;;;;;12.53;100.00;97748.03;1826804;78;20077;-66
2022/06/22 04:19:04;;;;;;;;;;;;;;;12.66;100.00;97745.84;1826885;78;20078;-66
2022/06/22 04:21:42;;;;;;;;;;;;;;;12.79;100.00;97743.63;1826739;78;21834;-66
2022/06/22 04:24:14;;;;;;;;;;;;;;;12.89;100.00;97752.03;1826830;78;20105;-67
2022/06/22 04:26:50;;;;;;;;;;;;;;;12.96;97.22;97769.22;1826811;78;20083;-66
2022/06/22 04:29:20;;;;;;;;;;;;;;;12.90;96.49;97765.22;1826842;78;20081;-66
2022/06/22 04:31:53;;;;;;;;;;;;;;;12.83;96.42;97762.37;1826861;78;20133;-66
2022/06/22 04:34:36;;;;;;;;;;;;;;;12.81;96.72;97763.32;1826774;78;21101;-66
2022/06/22 04:37:03;;;;;;;;;;;;;;;12.84;97.10;97768.08;1826746;78;20089;-66
2022/06/22 04:39:33;;;;;;;;;;;;;;;12.90;95.55;97776.23;1826941;78;20089;-66
2022/06/22 04:42:04;;;;;;;;;;;;;;;12.87;95.14;97781.11;1805867;78;20103;-66
2022/06/22 04:44:31;;;;;;;;;;;;;;;12.84;94.80;97787.36;1800046;79;20112;-66
2022/06/22 04:47:24;;;;;;;;;;;;;;;12.77;94.38;97786.67;1800386;79;21181;-66
2022/06/22 04:49:54;;;;;;;;;;;;;;;12.69;93.80;97792.48;1800242;79;20115;-65
2022/06/22 04:52:42;;;;;;;;;;;;;;;12.57;94.09;97793.50;1800291;79;20160;-65
2022/06/22 04:55:19;;;;;;;;;;;;;;;12.54;94.73;97794.23;1800362;79;20119;-66
2022/06/22 04:57:48;;;;;;;;;;;;;;;12.48;94.69;97798.47;1800246;79;20108;-65
2022/06/22 05:00:18;;;;;;;;;;;;;;;12.40;94.86;97797.56;1800775;79;20741;-65
2022/06/22 05:02:47;;;;;;;;;;;;;;;12.38;95.23;97799.09;1800257;79;20091;-66
2022/06/22 05:05:22;;;;;;;;;;;;;;;12.35;93.71;97805.34;1799900;79;20111;-65
2022/06/22 05:08:08;;;;;;;;;;;;;;;12.32;93.66;97807.45;1773771;79;20112;-66
2022/06/22 05:10:53;;;;;;;;;;;;;;;12.30;93.82;97802.32;1800432;79;20091;-66
2022/06/22 05:13:28;;;;;;;;;;;;;;;12.34;94.20;97806.50;1800423;79;21238;-66
2022/06/22 05:15:56;;;;;;;;;;;;;;;12.43;94.93;97805.08;1800379;79;20080;-65
2022/06/22 05:18:29;;;;;;;;;;;;;;;12.58;94.52;97812.98;1798910;78;20091;-68
2022/06/22 05:21:11;;;;;;;;;;;;;;;12.70;95.08;97805.09;1757864;81;20193;-66
2022/06/22 05:23:37;;;;;;;;;;;;;;;12.95;94.89;97819.97;1786095;80;20498;-65
2022/06/22 05:26:06;;;;;;;;;;;;;;;13.19;94.58;97819.53;1776053;80;21112;-67
2022/06/22 05:28:39;;;;;;;;;;;;;;;13.47;90.56;97811.38;1752203;82;20454;-66
2022/06/22 05:31:12;;;;;;;;;;;;;;;13.63;88.01;97813.33;1767842;80;20443;-66
2022/06/22 05:33:39;;;;;;;;;;;;;;;13.64;87.82;97804.47;1752117;82;20087;-66
2022/06/22 05:36:07;;;;;;;;;;;;;;;13.64;86.78;97790.10;1752101;82;20514;-66
2022/06/22 05:38:40;;;;;;;;;;;;;;;13.69;86.57;97784.83;1752167;82;22078;-66
2022/06/22 05:41:07;;;;;;;;;;;;;;;13.84;87.36;97788.73;1751106;81;20142;-66
2022/06/22 05:43:38;;;;;;;;;;;;;;;14.03;86.43;97797.94;1749050;82;20142;-66
2022/06/22 05:46:06;;;;;;;;;;;;;;;14.07;85.41;97805.08;1748895;82;20119;-66
2022/06/22 05:48:44;;;;;;;;;;;;;;;14.13;84.57;97806.89;1767696;80;20107;-67
2022/06/22 05:51:17;;;;;;;;;;;;;;;14.13;85.82;97812.41;1780216;80;21113;-66
2022/06/22 05:53:56;;;;;;;;;;;;;;;14.11;85.86;97812.00;1783465;80;20107;-66
2022/06/22 05:56:29;;;;;;;;;;;;;;;14.06;86.02;97817.87;1755059;80;20174;-66
2022/06/22 05:58:59;;;;;;;;;;;;;;;14.01;86.13;97819.01;1791382;80;20108;-67
2022/06/22 06:01:37;;;;;;;;;;;;;;;13.88;85.24;97821.25;1783277;80;20143;-66
2022/06/22 06:04:35;;;;;;;;;;;;;;;13.79;86.71;97814.48;1783276;80;21090;-66
2022/06/22 06:07:14;;;;;;;;;;;;;;;13.71;85.51;97811.44;1770084;80;20123;-66
2022/06/22 06:09:42;;;;;;;;;;;;;;;13.58;84.72;97820.56;1771540;80;20107;-66
2022/06/22 06:12:16;;;;;;;;;;;;;;;13.47;85.38;97829.30;1786016;80;20118;-66
2022/06/22 06:14:45;;;;;;;;;;;;;;;13.42;85.39;97826.87;1785122;80;20150;-66
2022/06/22 06:17:30;;;;;;;;;;;;;;;13.42;86.19;97824.91;1785820;80;21120;-66
2022/06/22 06:19:56;;;;;;;;;;;;;;;13.47;86.76;97825.16;1782064;80;20211;-66
2022/06/22 06:22:23;;;;;;;;;;;;;;;13.58;88.86;97834.34;1786017;80;20154;-67
2022/06/22 06:27:36;;;;;;;;;;;;;;;13.82;87.76;97850.38;1745348;80;20457;-66
2022/06/22 06:30:23;;;;;;;;;;;;;;;13.87;87.95;97846.45;1786096;80;21159;-66
2022/06/22 06:32:59;;;;;;;;;;;;;;;13.88;88.45;97839.17;1786244;80;20107;-66
2022/06/22 06:35:32;;;;;;;;;;;;;;;13.86;88.03;97830.48;1786124;80;20099;-66
2022/06/22 06:38:23;;;;;;;;;;;;;;;13.88;87.50;97824.01;1786217;80;20107;-66
2022/06/22 06:40:54;;;;;;;;;;;;;;;13.87;87.58;97809.22;1786208;80;20477;-67
2022/06/22 06:43:31;;;;;;;;;;;;;;;14.00;86.42;97807.77;1786262;80;21744;-66
2022/06/22 06:45:59;;;;;;;;;;;;;;;14.22;87.50;97812.89;1786136;80;20122;-66
2022/06/22 06:48:26;;;;;;;;;;;;;;;14.52;87.55;97819.64;1786242;80;20106;-66
2022/06/22 06:50:57;;;;;;;;;;;;;;;14.76;83.42;97815.47;1786344;80;20446;-66
2022/06/22 06:53:42;;;;;;;;;;;;;;;14.96;81.37;97822.30;1786218;80;20142;-66
2022/06/22 06:56:21;;;;;;;;;;;;;;;15.07;80.67;97827.27;1786241;80;21168;-66
2022/06/22 06:58:57;;;;;;;;;;;;;;;15.30;78.83;97830.34;1786137;80;20438;-66
2022/06/22 07:01:28;;;;;;;;;;;;;;;15.42;77.16;97834.94;1780082;80;20111;-67
2022/06/22 07:03:59;;;;;;;;;;;;;;;15.53;76.43;97834.39;1757377;81;20157;-67
2022/06/22 07:06:26;;;;;;;;;;;;;;;15.78;79.16;97834.47;1757412;80;20459;-66
2022/06/22 07:08:59;;;;;;;;;;;;;;;16.12;77.99;97822.48;1765742;80;21121;-67
2022/06/22 07:11:32;;;;;;;;;;;;;;;16.37;76.61;97828.01;1785834;80;20435;-66
2022/06/22 07:14:10;;;;;;;;;;;;;;;16.55;73.20;97827.22;1785954;80;20198;-67
2022/06/22 07:16:36;;;;;;;;;;;;;;;16.60;71.12;97818.52;1786106;80;20147;-66
2022/06/22 07:19:19;;;;;;;;;;;;;;;16.61;68.96;97819.50;1733172;80;20107;-66
2022/06/22 07:22:04;;;;;;;;;;;;;;;16.54;69.24;97827.81;1784339;80;21154;-66
2022/06/22 07:24:37;;;;;;;;;;;;;;;16.58;70.42;97816.14;1785209;80;20158;-67
2022/06/22 07:27:33;;;;;;;;;;;;;;;16.78;68.58;97816.52;1785792;80;20477;-66
2022/06/22 07:30:17;;;;;;;;;;;;;;;16.96;69.12;97816.48;1786145;80;20475;-66
2022/06/22 07:32:57;;;;;;;;;;;;;;;17.21;66.05;97821.95;1785854;80;20142;-66
2022/06/22 07:35:33;;;;;;;;;;;;;;;17.27;66.97;97821.14;1786225;80;21229;-66
2022/06/22 07:38:03;;;;;;;;;;;;;;;17.23;65.93;97830.07;1786061;80;20178;-67
2022/06/22 07:40:30;;;;;;;;;;;;;;;16.97;63.50;97841.03;1785806;80;20143;-67
2022/06/22 07:42:58;;;;;;;;;;;;;;;16.53;64.11;97842.06;1753085;81;20138;-66
2022/06/22 07:45:25;;;;;;;;;;;;;;;16.09;66.61;97843.24;1776606;81;20124;-67
2022/06/22 07:48:01;;;;;;;;;;;;;;;15.81;67.86;97844.76;1776223;80;21242;-68
2022/06/22 07:50:43;;;;;;;;;;;;;;;15.64;68.85;97850.23;1789572;80;20116;-66
2022/06/22 07:53:17;;;;;;;;;;;;;;;15.49;69.09;97854.33;1758882;81;20101;-65
2022/06/22 07:55:53;;;;;;;;;;;;;;;15.40;69.34;97851.13;1772526;80;20111;-68
2022/06/22 07:58:36;;;;;;;;;;;;;;;15.34;70.10;97854.66;1767176;80;20207;-66
2022/06/22 08:01:11;;;;;;;;;;;;;;;15.29;69.70;97855.02;1790059;80;21859;-66
2022/06/22 08:03:45;;;;;;;;;;;;;;;15.17;69.94;97857.52;1790232;79;20095;-66
2022/06/22 08:06:18;;;;;;;;;;;;;;;15.04;70.14;97871.46;1789919;79;20170;-66
2022/06/22 08:09:02;;;;;;;;;;;;;;;14.96;70.97;97877.56;1789748;80;20465;-66
2022/06/22 08:11:40;;;;;;;;;;;;;;;14.96;71.07;97871.24;1790175;79;20107;-66
2022/06/22 08:14:21;;;;;;;;;;;;;;;15.07;71.13;97874.25;1789226;80;21255;-66
2022/06/22 08:16:51;;;;;;;;;;;;;;;15.27;70.54;97874.76;1789811;79;20118;-67
2022/06/22 08:19:18;;;;;;;;;;;;;;;15.41;70.29;97878.98;1789264;79;20138;-67
2022/06/22 08:21:46;;;;;;;;;;;;;;;15.48;69.69;97876.84;1789637;80;20501;-67
2022/06/22 08:24:14;;;;;;;;;;;;;;;15.52;69.93;97879.03;1789782;79;20138;-68
2022/06/22 08:26:41;;;;;;;;;;;;;;;15.49;68.02;97876.45;1765385;80;21286;-68
2022/06/22 08:29:07;;;;;;;;;;;;;;;15.43;68.12;97883.53;1765566;80;20198;-68
2022/06/22 08:31:54;;;;;;;;;;;;;;;15.32;68.17;97887.42;1789730;80;20122;-69
2022/06/22 08:34:33;;;;;;;;;;;;;;;15.26;69.69;97887.59;1788208;80;20146;-71
2022/06/22 08:37:07;;;;;;;;;;;;;;;15.37;69.89;97884.28;1789871;80;20142;-68
2022/06/22 08:39:40;;;;;;;;;;;;;;;15.53;69.28;97887.53;1765406;80;21146;-67
2022/06/22 08:42:35;;;;;;;;;;;;;;;15.69;69.77;97880.28;1776546;80;20158;-67
2022/06/22 08:45:06;;;;;;;;;;;;;;;15.83;67.87;97874.21;1800185;79;20080;-68
2022/06/22 08:47:54;;;;;;;;;;;;;;;15.80;67.44;97890.21;1781675;80;20599;-70
2022/06/22 08:50:37;;;;;;;;;;;;;;;15.72;67.13;97889.98;1779427;80;20135;-67
2022/06/22 08:53:22;;;;;;;;;;;;;;;15.64;66.87;97895.28;1781984;80;22029;-68
2022/06/22 08:56:21;;;;;;;;;;;;;;;15.61;67.41;97903.56;1798802;79;20071;-67
2022/06/22 08:59:06;;;;;;;;;;;;;;;15.69;68.71;97900.44;1782163;80;20501;-67
2022/06/22 09:01:39;;;;;;;;;;;;;;;15.92;67.85;97897.95;1782049;80;20107;-66
2022/06/22 09:04:29;;;;;;;;;;;;;;;16.29;67.41;97903.95;1800503;79;20091;-66
2022/06/22 09:07:02;;;;;;;;;;;;;;;16.51;65.37;97900.03;1781657;80;21197;-67
2022/06/22 09:09:38;;;;;;;;;;;;;;;16.52;64.35;97903.59;1782058;80;20139;-67
2022/06/22 09:12:21;;;;;;;;;;;;;;;16.55;64.61;97904.78;1800300;79;20112;-67
2022/06/22 09:15:07;;;;;;;;;;;;;;;16.80;65.88;97900.83;1781975;80;20123;-67
2022/06/22 09:17:52;;;;;;;;;;;;;;;17.11;63.05;97904.77;1800367;79;20096;-67
2022/06/22 09:20:43;;;;;;;;;;;;;;;17.19;61.25;97903.36;1782303;80;21964;-66
2022/06/22 09:23:30;;;;;;;;;;;;;;;17.15;61.59;97898.62;1802021;78;20089;-67
2022/06/22 09:26:03;;;;;;;;;;;;;;;17.13;60.53;97899.61;1765769;81;20206;-70
2022/06/22 09:28:58;;;;;;;;;;;;;;;17.23;62.58;97908.31;1813819;78;20424;-69
2022/06/22 09:31:50;;;;;;;;;;;;;;;17.37;60.94;97908.25;1743513;81;20091;-66
2022/06/22 09:34:36;;;;;;;;;;;;;;;17.58;62.28;97902.64;1793410;79;21106;-68
2022/06/22 09:37:18;;;;;;;;;;;;;;;18.02;60.90;97903.45;1799917;79;20106;-68
2022/06/22 09:40:04;;;;;;;;;;;;;;;18.52;61.00;97891.21;1794046;79;20449;-68
2022/06/22 09:42:47;;;;;;;;;;;;;;;18.99;60.87;97889.06;1799690;79;20138;-68
2022/06/22 09:45:29;;;;;;;;;;;;;;;19.26;58.36;97892.55;1800420;79;20112;-68
2022/06/22 09:48:02;;;;;;;;;;;;;;;19.09;56.34;97890.14;1800124;79;21800;-68
2022/06/22 09:51:01;;;;;;;;;;;;;;;19.00;57.39;97890.64;1799873;79;20118;-67
2022/06/22 09:53:46;;;;;;;;;;;;;;;19.07;57.24;97886.38;1800375;79;20142;-67
2022/06/22 09:56:27;;;;;;;;;;;;;;;18.92;54.97;97887.73;1800483;79;20644;-70
2022/06/22 09:59:02;;;;;;;;;;;;;;;18.58;55.79;97888.98;1781771;79;20126;-68
2022/06/22 10:01:32;;;;;;;;;;;;;;;18.28;57.75;97885.45;1800180;78;21163;-68
2022/06/22 10:04:22;;;;;;;;;;;;;;;18.22;57.47;97889.85;1800115;79;20134;-68
2022/06/22 10:06:52;;;;;;;;;;;;;;;18.46;56.49;97889.50;1800085;79;20169;-67
2022/06/22 10:09:26;;;;;;;;;;;;;;;19.16;58.24;97887.89;1796090;79;20122;-67
2022/06/22 10:12:27;;;;;;;;;;;;;;;19.60;56.99;97898.17;1800106;79;20118;-70
2022/06/22 10:15:23;;;;;;;;;;;;;;;19.57;53.75;97900.40;1800091;79;21831;-69
2022/06/22 10:18:14;;;;;;;;;;;;;;;19.40;53.24;97895.97;1800060;79;20462;-69
2022/06/22 10:21:18;;;;;;;;;;;;;;;19.43;54.38;97892.97;1799343;79;20472;-69
2022/06/22 10:23:48;;;;;;;;;;;;;;;19.56;53.06;97897.43;1796870;79;20194;-71
2022/06/22 10:26:23;;;;;;;;;;;;;;;19.64;53.54;97891.34;1781510;79;20164;-71
2022/06/22 10:29:20;;;;;;;;;;;;;;;20.01;54.58;97899.44;1752660;79;20110;-70
2022/06/22 10:32:11;;;;;;;;;;;;;;;20.59;51.89;97904.38;1772216;79;20165;-69
2022/06/22 10:34:42;;;;;;;;;;;;;;;20.89;52.04;97904.27;1798125;78;20135;-69
2022/06/22 10:37:38;;;;;;;;;;;;;;;21.16;48.75;97903.41;1798426;78;20134;-68
2022/06/22 10:46:09;;;;;;;;;;;;;;;21.19;49.77;97906.14;1786800;78;20095;-71
2022/06/22 10:48:59;;;;;;;;;;;;;;;21.27;50.17;97897.06;1789785;80;20108;-68
2022/06/22 10:51:50;;;;;;;;;;;;;;;21.25;47.57;97907.26;1789542;79;20525;-69
2022/06/22 10:54:39;;;;;;;;;;;;;;;21.10;48.96;97915.67;1779646;78;20092;-68
2022/06/22 10:57:25;;;;;;;;;;;;;;;21.19;48.28;97920.09;1757546;81;20154;-67
2022/06/22 11:00:11;;;;;;;;;;;;;;;21.33;47.36;97920.48;1779224;80;20122;-68
2022/06/22 11:03:08;;;;;;;;;;;;;;;21.60;47.89;97889.63;1792013;80;20138;-68
2022/06/22 11:06:11;;;;;;;;;;;;;;;21.50;44.86;97911.56;1760301;81;20168;-69
2022/06/22 11:08:59;;;;;;;;;;;;;;;21.34;46.65;97901.91;1780443;79;20111;-68
2022/06/22 11:11:35;;;;;;;;;;;;;;;21.49;47.13;97914.97;1762710;80;20597;-67
2022/06/22 11:14:31;;;;;;;;;;;;;;;21.56;47.24;97916.84;1791472;79;21407;-68
2022/06/22 11:17:13;;;;;;;;;;;;;;;21.36;45.94;97920.41;1764277;80;20115;-67
2022/06/22 11:19:53;;;;;;;;;;;;;;;21.22;46.65;97926.86;1791120;80;21147;-67
2022/06/22 11:22:35;;;;;;;;;;;;;;;21.08;46.35;97915.30;1764161;80;20122;-67
2022/06/22 11:25:06;;;;;;;;;;;;;;;21.01;46.66;97916.22;1791750;80;21767;-67
2022/06/22 11:30:58;;;;;;;;;;;;;;;20.66;47.90;97928.76;1791974;80;20119;-67
2022/06/22 11:33:55;;;;;;;;;;;;;;;20.93;48.38;97925.91;1764959;80;20198;-67
2022/06/22 11:36:39;;;;;;;;;;;;;;;21.38;46.46;97916.55;1764941;80;20151;-67
2022/06/22 11:39:31;;;;;;;;;;;;;;;21.80;45.21;97912.77;1764960;80;20493;-67
2022/06/22 11:42:25;;;;;;;;;;;;;;;21.51;43.57;97927.89;1790720;80;20118;-67
2022/06/22 11:47:45;;;;;;;;;;;;;;;20.26;46.55;97931.89;1792206;80;20473;-66
2022/06/22 11:50:27;;;;;;;;;;;;;;;20.09;47.10;97932.95;1790575;79;20138;-70
2022/06/22 11:53:18;;;;;;;;;;;;;;;19.97;47.98;97944.64;1790755;80;22017;-66
2022/06/22 11:55:55;;;;;;;;;;;;;;;19.82;48.71;97957.16;1763457;80;20186;-66
2022/06/22 11:58:32;;;;;;;;;;;;;;;19.77;50.99;97973.71;1791906;80;20193;-69
2022/06/22 12:01:15;;;;;;;;;;;;;;;19.63;53.37;97962.16;1764927;80;20151;-66
2022/06/22 12:03:55;;;;;;;;;;;;;;;19.34;54.33;97954.67;1791611;80;20114;-65
2022/06/22 12:06:47;;;;;;;;;;;;;;;19.04;55.63;97976.22;1784696;80;21137;-67
2022/06/22 12:09:53;;;;;;;;;;;;;;;18.77;56.86;97997.47;1767234;81;20112;-66
2022/06/22 12:12:43;;;;;;;;;;;;;;;18.53;57.72;97993.62;1771141;81;20132;-66
2022/06/22 12:15:30;;;;;;;;;;;;;;;18.36;58.42;98004.25;1772631;81;20473;-66
2022/06/22 12:18:07;;;;;;;;;;;;;;;18.23;59.47;98012.25;1742098;81;20187;-71
2022/06/22 12:20:41;;;;;;;;;;;;;;;18.17;61.75;98006.92;1782342;79;21168;-72
2022/06/22 12:23:22;;;;;;;;;;;;;;;18.21;62.82;98004.92;1787918;80;20158;-71
2022/06/22 12:25:53;;;;;;;;;;;;;;;18.26;62.15;98002.31;1784075;80;20168;-70
2022/06/22 12:28:51;;;;;;;;;;;;;;;18.26;62.08;97998.16;1792250;80;20250;-66
2022/06/22 12:31:20;;;;;;;;;;;;;;;18.20;62.11;97992.82;1789939;79;21071;-69
2022/06/22 12:34:02;;;;;;;;;;;;;;;18.07;63.72;97998.03;1790093;79;21238;-69
2022/06/22 12:36:32;;;;;;;;;;;;;;;17.92;64.33;98001.45;1791771;79;20084;-70
2022/06/22 12:39:06;;;;;;;;;;;;;;;17.86;66.22;97999.52;1791945;79;20432;-69
2022/06/22 12:41:53;;;;;;;;;;;;;;;18.02;68.64;98001.22;1791792;80;20448;-70
2022/06/22 12:44:44;;;;;;;;;;;;;;;18.26;68.22;98000.33;1791101;78;20084;-66
2022/06/22 12:47:34;;;;;;;;;;;;;;;18.44;64.88;98002.42;1789687;80;21354;-66
2022/06/22 12:50:25;;;;;;;;;;;;;;;18.69;63.98;97994.55;1791098;80;20456;-69
2022/06/22 12:52:57;;;;;;;;;;;;;;;19.31;61.40;97990.27;1791206;80;20081;-66
2022/06/22 12:55:27;;;;;;;;;;;;;;;20.09;55.63;97990.05;1787108;80;20140;-66
2022/06/22 12:58:02;;;;;;;;;;;;;;;20.70;55.16;97986.66;1759485;80;20466;-66
2022/06/22 13:00:30;;;;;;;;;;;;;;;21.27;51.64;97982.19;1784724;80;21086;-66
2022/06/22 13:03:01;;;;;;;;;;;;;;;21.65;51.17;97975.70;1790477;80;20157;-66
2022/06/22 13:05:29;;;;;;;;;;;;;;;21.99;49.80;97979.60;1790679;80;20114;-66
2022/06/22 13:07:59;;;;;;;;;;;;;;;22.16;48.48;97981.89;1754748;80;20154;-67
2022/06/22 13:10:35;;;;;;;;;;;;;;;22.17;47.18;97996.83;1759563;80;20510;-67
2022/06/22 13:13:06;;;;;;;;;;;;;;;22.14;47.66;97997.69;1789723;80;21126;-66
2022/06/22 13:15:44;;;;;;;;;;;;;;;22.12;47.06;97997.33;1780625;80;20213;-66
2022/06/22 13:18:27;;;;;;;;;;;;;;;22.09;47.67;97998.19;1791081;80;20111;-66
2022/06/22 13:21:13;;;;;;;;;;;;;;;21.87;48.19;98004.80;1787009;80;20149;-67
2022/06/22 13:24:12;;;;;;;;;;;;;;;21.60;47.51;98005.50;1790107;80;20166;-65
2022/06/22 13:26:51;;;;;;;;;;;;;;;21.23;46.91;98014.94;1742330;80;21195;-65
2022/06/22 13:29:34;;;;;;;;;;;;;;;20.78;50.36;98012.44;1760348;80;20147;-65
2022/06/22 13:32:04;;;;;;;;;;;;;;;20.41;49.68;98002.98;1791415;80;20442;-65
2022/06/22 13:34:40;;;;;;;;;;;;;;;20.06;50.95;98004.21;1791327;80;20138;-65
2022/06/22 13:37:27;;;;;;;;;;;;;;;19.81;54.12;98014.05;1755429;80;20171;-65
2022/06/22 13:40:31;;;;;;;;;;;;;;;19.55;54.90;98015.53;1768232;80;21277;-65
2022/06/22 13:43:17;;;;;;;;;;;;;;;19.30;56.54;98012.94;1790636;80;20118;-65
2022/06/22 13:45:55;;;;;;;;;;;;;;;19.05;57.09;98011.77;1790141;80;20460;-65
2022/06/22 13:48:48;;;;;;;;;;;;;;;18.87;59.12;98011.90;1791135;80;20525;-65
2022/06/22 13:51:28;;;;;;;;;;;;;;;18.76;59.29;98020.31;1791266;80;20591;-66
2022/06/22 13:54:13;;;;;;;;;;;;;;;18.63;59.14;98027.53;1790022;80;21165;-65